sensor_id;sensor_type;location;lat;lon;timestamp;P1;durP1;ratioP1;P2;durP2;ratioP2
11709;SDS011;5911;51.036;6.972;2023-12-20T00:01:30;9.47;;;8.00;;
11709;SDS011;5911;51.036;6.972;2023-12-20T00:03:57;9.43;;;8.37;;
11709;SDS011;5911;51.036;6.972;2023-12-20T00:06:25;9.67;;;8.67;;
11709;SDS011;5911;51.036;6.972;2023-12-20T00:08:52;9.77;;;8.33;;
11709;SDS011;5911;51.036;6.972;2023-12-20T00:11:21;9.67;;;8.60;;
11709;SDS011;5911;51.036;6.972;2023-12-20T00:13:48;9.82;;;8.82;;
11709;SDS011;5911;51.036;6.972;2023-12-20T00:16:17;11.27;;;9.80;;
11709;SDS011;5911;51.036;6.972;2023-12-20T00:18:45;10.03;;;8.73;;
11709;SDS011;5911;51.036;6.972;2023-12-20T00:21:12;11.33;;;9.87;;
11709;SDS011;5911;51.036;6.972;2023-12-20T00:23:40;11.10;;;10.00;;
11709;SDS011;5911;51.036;6.972;2023-12-20T00:26:07;12.40;;;10.03;;
11709;SDS011;5911;51.036;6.972;2023-12-20T00:28:36;11.67;;;10.30;;
11709;SDS011;5911;51.036;6.972;2023-12-20T00:31:04;8.90;;;7.07;;
11709;SDS011;5911;51.036;6.972;2023-12-20T00:33:32;6.93;;;6.23;;
11709;SDS011;5911;51.036;6.972;2023-12-20T00:35:59;6.57;;;5.90;;
11709;SDS011;5911;51.036;6.972;2023-12-20T00:38:27;5.43;;;3.93;;
11709;SDS011;5911;51.036;6.972;2023-12-20T00:40:55;4.30;;;3.90;;
11709;SDS011;5911;51.036;6.972;2023-12-20T00:43:22;5.30;;;3.77;;
11709;SDS011;5911;51.036;6.972;2023-12-20T00:45:52;5.60;;;3.70;;
11709;SDS011;5911;51.036;6.972;2023-12-20T00:48:19;3.63;;;3.20;;
11709;SDS011;5911;51.036;6.972;2023-12-20T00:50:47;3.20;;;2.90;;
11709;SDS011;5911;51.036;6.972;2023-12-20T00:53:14;3.47;;;3.10;;
11709;SDS011;5911;51.036;6.972;2023-12-20T00:55:42;7.80;;;4.07;;
11709;SDS011;5911;51.036;6.972;2023-12-20T00:58:10;4.50;;;3.80;;
11709;SDS011;5911;51.036;6.972;2023-12-20T01:00:38;5.40;;;4.20;;
11709;SDS011;5911;51.036;6.972;2023-12-20T01:03:10;4.73;;;3.77;;
11709;SDS011;5911;51.036;6.972;2023-12-20T01:05:38;6.20;;;4.30;;
11709;SDS011;5911;51.036;6.972;2023-12-20T01:08:06;5.97;;;4.67;;
11709;SDS011;5911;51.036;6.972;2023-12-20T01:10:33;5.00;;;4.07;;
11709;SDS011;5911;51.036;6.972;2023-12-20T01:13:01;11.07;;;6.47;;
11709;SDS011;5911;51.036;6.972;2023-12-20T01:15:27;7.07;;;5.73;;
11709;SDS011;5911;51.036;6.972;2023-12-20T01:17:55;7.77;;;5.80;;
11709;SDS011;5911;51.036;6.972;2023-12-20T01:20:24;7.23;;;6.00;;
11709;SDS011;5911;51.036;6.972;2023-12-20T01:22:52;7.07;;;5.80;;
11709;SDS011;5911;51.036;6.972;2023-12-20T01:25:19;8.50;;;6.30;;
11709;SDS011;5911;51.036;6.972;2023-12-20T01:27:47;6.90;;;6.00;;
11709;SDS011;5911;51.036;6.972;2023-12-20T01:30:15;8.50;;;5.80;;
11709;SDS011;5911;51.036;6.972;2023-12-20T01:32:42;10.80;;;6.00;;
11709;SDS011;5911;51.036;6.972;2023-12-20T01:35:10;7.93;;;6.83;;
11709;SDS011;5911;51.036;6.972;2023-12-20T01:37:40;12.33;;;8.67;;
11709;SDS011;5911;51.036;6.972;2023-12-20T01:40:08;9.83;;;7.53;;
11709;SDS011;5911;51.036;6.972;2023-12-20T01:42:36;13.10;;;8.33;;
11709;SDS011;5911;51.036;6.972;2023-12-20T01:45:03;14.27;;;8.30;;
11709;SDS011;5911;51.036;6.972;2023-12-20T01:47:31;12.53;;;8.50;;
11709;SDS011;5911;51.036;6.972;2023-12-20T01:49:59;10.17;;;7.37;;
11709;SDS011;5911;51.036;6.972;2023-12-20T01:52:30;11.17;;;7.03;;
11709;SDS011;5911;51.036;6.972;2023-12-20T01:54:59;9.30;;;6.80;;
11709;SDS011;5911;51.036;6.972;2023-12-20T01:57:29;10.47;;;7.20;;
11709;SDS011;5911;51.036;6.972;2023-12-20T01:59:57;10.43;;;7.10;;
11709;SDS011;5911;51.036;6.972;2023-12-20T02:02:25;11.03;;;6.87;;
11709;SDS011;5911;51.036;6.972;2023-12-20T02:04:53;11.07;;;6.43;;
11709;SDS011;5911;51.036;6.972;2023-12-20T02:07:21;15.27;;;7.40;;
11709;SDS011;5911;51.036;6.972;2023-12-20T02:09:50;9.17;;;6.47;;
11709;SDS011;5911;51.036;6.972;2023-12-20T02:12:19;8.90;;;6.43;;
11709;SDS011;5911;51.036;6.972;2023-12-20T02:14:47;7.97;;;6.17;;
11709;SDS011;5911;51.036;6.972;2023-12-20T02:17:14;10.27;;;6.30;;
11709;SDS011;5911;51.036;6.972;2023-12-20T02:19:43;9.70;;;6.77;;
11709;SDS011;5911;51.036;6.972;2023-12-20T02:22:12;6.63;;;5.80;;
11709;SDS011;5911;51.036;6.972;2023-12-20T02:24:39;13.00;;;7.07;;
11709;SDS011;5911;51.036;6.972;2023-12-20T02:27:07;8.97;;;5.67;;
11709;SDS011;5911;51.036;6.972;2023-12-20T02:29:35;10.03;;;5.73;;
11709;SDS011;5911;51.036;6.972;2023-12-20T02:32:03;8.10;;;6.00;;
11709;SDS011;5911;51.036;6.972;2023-12-20T02:34:30;9.93;;;5.67;;
11709;SDS011;5911;51.036;6.972;2023-12-20T02:36:58;8.07;;;5.10;;
11709;SDS011;5911;51.036;6.972;2023-12-20T02:39:27;7.67;;;5.10;;
11709;SDS011;5911;51.036;6.972;2023-12-20T02:41:54;11.27;;;5.23;;
11709;SDS011;5911;51.036;6.972;2023-12-20T02:44:21;10.30;;;5.30;;
11709;SDS011;5911;51.036;6.972;2023-12-20T02:46:49;13.50;;;5.13;;
11709;SDS011;5911;51.036;6.972;2023-12-20T02:49:16;10.83;;;5.30;;
11709;SDS011;5911;51.036;6.972;2023-12-20T02:51:44;10.43;;;5.17;;
11709;SDS011;5911;51.036;6.972;2023-12-20T02:54:12;11.13;;;5.20;;
11709;SDS011;5911;51.036;6.972;2023-12-20T02:56:41;11.27;;;4.90;;
11709;SDS011;5911;51.036;6.972;2023-12-20T02:59:09;6.83;;;4.67;;
11709;SDS011;5911;51.036;6.972;2023-12-20T03:01:39;8.30;;;4.37;;
11709;SDS011;5911;51.036;6.972;2023-12-20T03:04:08;11.47;;;4.87;;
11709;SDS011;5911;51.036;6.972;2023-12-20T03:06:36;10.77;;;4.30;;
11709;SDS011;5911;51.036;6.972;2023-12-20T03:09:03;14.90;;;4.17;;
11709;SDS011;5911;51.036;6.972;2023-12-20T03:11:31;5.70;;;2.80;;
11709;SDS011;5911;51.036;6.972;2023-12-20T03:14:00;11.17;;;3.63;;
11709;SDS011;5911;51.036;6.972;2023-12-20T03:16:27;8.43;;;3.23;;
11709;SDS011;5911;51.036;6.972;2023-12-20T03:18:55;7.27;;;3.13;;
11709;SDS011;5911;51.036;6.972;2023-12-20T03:21:22;6.60;;;2.57;;
11709;SDS011;5911;51.036;6.972;2023-12-20T03:23:50;7.97;;;2.83;;
11709;SDS011;5911;51.036;6.972;2023-12-20T03:26:17;6.87;;;2.97;;
11709;SDS011;5911;51.036;6.972;2023-12-20T03:28:45;5.67;;;2.60;;
11709;SDS011;5911;51.036;6.972;2023-12-20T03:31:14;5.13;;;2.33;;
11709;SDS011;5911;51.036;6.972;2023-12-20T03:33:41;7.88;;;2.50;;
11709;SDS011;5911;51.036;6.972;2023-12-20T03:36:09;6.63;;;2.80;;
11709;SDS011;5911;51.036;6.972;2023-12-20T03:38:36;12.13;;;3.13;;
11709;SDS011;5911;51.036;6.972;2023-12-20T03:41:04;8.20;;;3.43;;
11709;SDS011;5911;51.036;6.972;2023-12-20T03:43:31;5.17;;;2.30;;
11709;SDS011;5911;51.036;6.972;2023-12-20T03:45:59;5.80;;;2.63;;
11709;SDS011;5911;51.036;6.972;2023-12-20T03:48:28;11.63;;;3.80;;
11709;SDS011;5911;51.036;6.972;2023-12-20T03:50:55;10.80;;;3.00;;
11709;SDS011;5911;51.036;6.972;2023-12-20T03:53:23;6.63;;;2.63;;
11709;SDS011;5911;51.036;6.972;2023-12-20T03:55:51;9.43;;;3.23;;
11709;SDS011;5911;51.036;6.972;2023-12-20T03:58:18;9.23;;;3.33;;
11709;SDS011;5911;51.036;6.972;2023-12-20T04:00:46;6.67;;;3.03;;
11709;SDS011;5911;51.036;6.972;2023-12-20T04:03:13;8.80;;;3.10;;
11709;SDS011;5911;51.036;6.972;2023-12-20T04:05:42;7.17;;;3.00;;
11709;SDS011;5911;51.036;6.972;2023-12-20T04:08:10;7.07;;;3.17;;
11709;SDS011;5911;51.036;6.972;2023-12-20T04:10:38;7.07;;;3.27;;
11709;SDS011;5911;51.036;6.972;2023-12-20T04:13:05;7.43;;;2.80;;
11709;SDS011;5911;51.036;6.972;2023-12-20T04:15:33;10.20;;;3.20;;
11709;SDS011;5911;51.036;6.972;2023-12-20T04:18:00;5.67;;;2.97;;
11709;SDS011;5911;51.036;6.972;2023-12-20T04:20:28;9.33;;;3.10;;
11709;SDS011;5911;51.036;6.972;2023-12-20T04:22:57;6.77;;;3.03;;
11709;SDS011;5911;51.036;6.972;2023-12-20T04:25:24;8.80;;;3.20;;
11709;SDS011;5911;51.036;6.972;2023-12-20T04:27:52;9.20;;;3.27;;
11709;SDS011;5911;51.036;6.972;2023-12-20T04:30:19;10.67;;;3.83;;
11709;SDS011;5911;51.036;6.972;2023-12-20T04:32:47;7.23;;;2.70;;
11709;SDS011;5911;51.036;6.972;2023-12-20T04:35:14;6.77;;;3.10;;
11709;SDS011;5911;51.036;6.972;2023-12-20T04:37:42;9.77;;;3.70;;
11709;SDS011;5911;51.036;6.972;2023-12-20T04:40:11;7.37;;;3.47;;
11709;SDS011;5911;51.036;6.972;2023-12-20T04:42:39;10.17;;;4.00;;
11709;SDS011;5911;51.036;6.972;2023-12-20T04:45:07;10.97;;;3.67;;
11709;SDS011;5911;51.036;6.972;2023-12-20T04:47:34;10.20;;;3.87;;
11709;SDS011;5911;51.036;6.972;2023-12-20T04:50:02;14.07;;;4.97;;
11709;SDS011;5911;51.036;6.972;2023-12-20T04:52:30;7.97;;;3.63;;
11709;SDS011;5911;51.036;6.972;2023-12-20T04:54:58;10.40;;;3.93;;
11709;SDS011;5911;51.036;6.972;2023-12-20T04:57:27;11.43;;;4.00;;
11709;SDS011;5911;51.036;6.972;2023-12-20T04:59:54;13.97;;;4.37;;
11709;SDS011;5911;51.036;6.972;2023-12-20T05:02:22;7.97;;;3.77;;
11709;SDS011;5911;51.036;6.972;2023-12-20T05:04:49;11.70;;;4.60;;
11709;SDS011;5911;51.036;6.972;2023-12-20T05:07:21;6.40;;;3.80;;
11709;SDS011;5911;51.036;6.972;2023-12-20T05:09:48;8.57;;;3.77;;
11709;SDS011;5911;51.036;6.972;2023-12-20T05:12:16;8.33;;;3.80;;
11709;SDS011;5911;51.036;6.972;2023-12-20T05:14:45;7.60;;;3.93;;
11709;SDS011;5911;51.036;6.972;2023-12-20T05:17:13;7.50;;;4.10;;
11709;SDS011;5911;51.036;6.972;2023-12-20T05:19:40;8.27;;;3.40;;
11709;SDS011;5911;51.036;6.972;2023-12-20T05:22:08;15.87;;;4.03;;
11709;SDS011;5911;51.036;6.972;2023-12-20T05:24:35;8.50;;;3.50;;
11709;SDS011;5911;51.036;6.972;2023-12-20T05:27:03;8.83;;;3.50;;
11709;SDS011;5911;51.036;6.972;2023-12-20T05:29:30;11.10;;;4.20;;
11709;SDS011;5911;51.036;6.972;2023-12-20T05:31:59;8.60;;;4.20;;
11709;SDS011;5911;51.036;6.972;2023-12-20T05:34:27;10.30;;;4.60;;
11709;SDS011;5911;51.036;6.972;2023-12-20T05:36:54;14.70;;;4.27;;
11709;SDS011;5911;51.036;6.972;2023-12-20T05:39:22;13.93;;;4.70;;
11709;SDS011;5911;51.036;6.972;2023-12-20T05:41:50;13.07;;;4.13;;
11709;SDS011;5911;51.036;6.972;2023-12-20T05:44:17;14.33;;;4.20;;
11709;SDS011;5911;51.036;6.972;2023-12-20T05:46:45;10.93;;;4.87;;
11709;SDS011;5911;51.036;6.972;2023-12-20T05:49:14;13.53;;;4.40;;
11709;SDS011;5911;51.036;6.972;2023-12-20T05:51:42;17.17;;;4.90;;
11709;SDS011;5911;51.036;6.972;2023-12-20T05:54:09;10.57;;;4.67;;
11709;SDS011;5911;51.036;6.972;2023-12-20T05:56:37;13.67;;;4.40;;
11709;SDS011;5911;51.036;6.972;2023-12-20T05:59:04;13.33;;;4.10;;
11709;SDS011;5911;51.036;6.972;2023-12-20T06:01:32;10.80;;;3.87;;
11709;SDS011;5911;51.036;6.972;2023-12-20T06:03:59;9.10;;;4.50;;
11709;SDS011;5911;51.036;6.972;2023-12-20T06:06:28;11.97;;;4.00;;
11709;SDS011;5911;51.036;6.972;2023-12-20T06:08:56;14.63;;;4.30;;
11709;SDS011;5911;51.036;6.972;2023-12-20T06:11:25;15.07;;;5.10;;
11709;SDS011;5911;51.036;6.972;2023-12-20T06:13:53;8.93;;;4.60;;
11709;SDS011;5911;51.036;6.972;2023-12-20T06:16:21;11.13;;;4.43;;
11709;SDS011;5911;51.036;6.972;2023-12-20T06:18:48;12.03;;;4.30;;
11709;SDS011;5911;51.036;6.972;2023-12-20T06:21:16;10.40;;;3.93;;
11709;SDS011;5911;51.036;6.972;2023-12-20T06:23:45;11.33;;;4.03;;
11709;SDS011;5911;51.036;6.972;2023-12-20T06:26:12;8.30;;;3.70;;
11709;SDS011;5911;51.036;6.972;2023-12-20T06:28:40;9.97;;;3.77;;
11709;SDS011;5911;51.036;6.972;2023-12-20T06:31:07;13.67;;;4.13;;
11709;SDS011;5911;51.036;6.972;2023-12-20T06:33:35;14.93;;;4.50;;
11709;SDS011;5911;51.036;6.972;2023-12-20T06:36:03;10.40;;;3.97;;
11709;SDS011;5911;51.036;6.972;2023-12-20T06:38:30;6.27;;;3.43;;
11709;SDS011;5911;51.036;6.972;2023-12-20T06:40:59;12.00;;;3.93;;
11709;SDS011;5911;51.036;6.972;2023-12-20T06:43:27;14.50;;;4.30;;
11709;SDS011;5911;51.036;6.972;2023-12-20T06:46:12;15.87;;;4.70;;
11709;SDS011;5911;51.036;6.972;2023-12-20T06:48:39;7.90;;;3.43;;
11709;SDS011;5911;51.036;6.972;2023-12-20T06:51:10;14.27;;;4.47;;
11709;SDS011;5911;51.036;6.972;2023-12-20T06:53:38;11.40;;;3.83;;
11709;SDS011;5911;51.036;6.972;2023-12-20T06:56:07;15.13;;;3.80;;
11709;SDS011;5911;51.036;6.972;2023-12-20T06:58:35;10.43;;;4.13;;
11709;SDS011;5911;51.036;6.972;2023-12-20T07:01:03;14.17;;;3.87;;
11709;SDS011;5911;51.036;6.972;2023-12-20T07:03:30;8.73;;;3.67;;
11709;SDS011;5911;51.036;6.972;2023-12-20T07:05:58;10.93;;;3.40;;
11709;SDS011;5911;51.036;6.972;2023-12-20T07:08:26;13.80;;;3.93;;
11709;SDS011;5911;51.036;6.972;2023-12-20T07:10:54;15.57;;;4.23;;
11709;SDS011;5911;51.036;6.972;2023-12-20T07:13:22;12.10;;;3.67;;
11709;SDS011;5911;51.036;6.972;2023-12-20T07:15:50;12.60;;;3.83;;
11709;SDS011;5911;51.036;6.972;2023-12-20T07:18:18;8.67;;;3.70;;
11709;SDS011;5911;51.036;6.972;2023-12-20T07:20:45;14.10;;;4.10;;
11709;SDS011;5911;51.036;6.972;2023-12-20T07:23:13;15.50;;;4.10;;
11709;SDS011;5911;51.036;6.972;2023-12-20T07:25:40;12.63;;;4.00;;
11709;SDS011;5911;51.036;6.972;2023-12-20T07:28:08;9.73;;;3.17;;
11709;SDS011;5911;51.036;6.972;2023-12-20T07:30:37;12.87;;;4.10;;
11709;SDS011;5911;51.036;6.972;2023-12-20T07:33:04;15.70;;;3.73;;
11709;SDS011;5911;51.036;6.972;2023-12-20T07:35:35;11.73;;;4.07;;
11709;SDS011;5911;51.036;6.972;2023-12-20T07:38:03;11.83;;;4.23;;
11709;SDS011;5911;51.036;6.972;2023-12-20T07:40:30;14.10;;;4.80;;
11709;SDS011;5911;51.036;6.972;2023-12-20T07:42:58;11.40;;;5.07;;
11709;SDS011;5911;51.036;6.972;2023-12-20T07:45:25;10.67;;;5.00;;
11709;SDS011;5911;51.036;6.972;2023-12-20T07:47:54;11.00;;;4.37;;
11709;SDS011;5911;51.036;6.972;2023-12-20T07:50:21;13.37;;;4.40;;
11709;SDS011;5911;51.036;6.972;2023-12-20T07:52:49;10.87;;;5.00;;
11709;SDS011;5911;51.036;6.972;2023-12-20T07:55:17;14.10;;;4.47;;
11709;SDS011;5911;51.036;6.972;2023-12-20T07:57:44;14.83;;;4.53;;
11709;SDS011;5911;51.036;6.972;2023-12-20T08:00:12;17.13;;;5.13;;
11709;SDS011;5911;51.036;6.972;2023-12-20T08:02:40;14.97;;;5.23;;
11709;SDS011;5911;51.036;6.972;2023-12-20T08:05:09;13.53;;;5.83;;
11709;SDS011;5911;51.036;6.972;2023-12-20T08:07:36;17.00;;;5.07;;
11709;SDS011;5911;51.036;6.972;2023-12-20T08:10:04;13.93;;;4.87;;
11709;SDS011;5911;51.036;6.972;2023-12-20T08:12:32;13.33;;;4.97;;
11709;SDS011;5911;51.036;6.972;2023-12-20T08:15:01;16.37;;;5.40;;
11709;SDS011;5911;51.036;6.972;2023-12-20T08:17:28;12.90;;;4.67;;
11709;SDS011;5911;51.036;6.972;2023-12-20T08:19:56;11.87;;;5.07;;
11709;SDS011;5911;51.036;6.972;2023-12-20T08:22:25;11.57;;;3.90;;
11709;SDS011;5911;51.036;6.972;2023-12-20T08:24:52;8.63;;;4.07;;
11709;SDS011;5911;51.036;6.972;2023-12-20T08:27:20;11.47;;;4.20;;
11709;SDS011;5911;51.036;6.972;2023-12-20T08:29:47;10.67;;;4.87;;
11709;SDS011;5911;51.036;6.972;2023-12-20T08:32:16;10.00;;;4.10;;
11709;SDS011;5911;51.036;6.972;2023-12-20T08:34:43;14.70;;;5.30;;
11709;SDS011;5911;51.036;6.972;2023-12-20T08:37:11;13.63;;;4.97;;
11709;SDS011;5911;51.036;6.972;2023-12-20T08:39:40;15.63;;;4.50;;
11709;SDS011;5911;51.036;6.972;2023-12-20T08:42:11;19.00;;;5.53;;
11709;SDS011;5911;51.036;6.972;2023-12-20T08:44:38;13.57;;;3.90;;
11709;SDS011;5911;51.036;6.972;2023-12-20T08:47:06;12.43;;;3.70;;
11709;SDS011;5911;51.036;6.972;2023-12-20T08:49:33;11.80;;;4.40;;
11709;SDS011;5911;51.036;6.972;2023-12-20T08:52:01;13.37;;;4.40;;
11709;SDS011;5911;51.036;6.972;2023-12-20T08:54:29;13.00;;;4.10;;
11709;SDS011;5911;51.036;6.972;2023-12-20T08:56:57;12.67;;;4.03;;
11709;SDS011;5911;51.036;6.972;2023-12-20T08:59:25;9.57;;;4.17;;
11709;SDS011;5911;51.036;6.972;2023-12-20T09:01:52;13.93;;;4.90;;
11709;SDS011;5911;51.036;6.972;2023-12-20T09:04:20;14.07;;;4.17;;
11709;SDS011;5911;51.036;6.972;2023-12-20T09:06:48;10.40;;;4.10;;
11709;SDS011;5911;51.036;6.972;2023-12-20T09:09:15;18.07;;;4.40;;
11709;SDS011;5911;51.036;6.972;2023-12-20T09:11:43;13.73;;;4.03;;
11709;SDS011;5911;51.036;6.972;2023-12-20T09:14:13;15.17;;;4.60;;
11709;SDS011;5911;51.036;6.972;2023-12-20T09:16:41;10.23;;;3.97;;
11709;SDS011;5911;51.036;6.972;2023-12-20T09:19:08;12.43;;;4.20;;
11709;SDS011;5911;51.036;6.972;2023-12-20T09:21:36;8.70;;;3.40;;
11709;SDS011;5911;51.036;6.972;2023-12-20T09:24:03;11.37;;;3.93;;
11709;SDS011;5911;51.036;6.972;2023-12-20T09:26:31;12.03;;;4.03;;
11709;SDS011;5911;51.036;6.972;2023-12-20T09:28:59;8.97;;;3.37;;
11709;SDS011;5911;51.036;6.972;2023-12-20T09:31:27;15.40;;;4.67;;
11709;SDS011;5911;51.036;6.972;2023-12-20T09:33:55;13.27;;;3.67;;
11709;SDS011;5911;51.036;6.972;2023-12-20T09:36:23;11.00;;;3.67;;
11709;SDS011;5911;51.036;6.972;2023-12-20T09:38:50;16.33;;;4.33;;
11709;SDS011;5911;51.036;6.972;2023-12-20T09:41:18;11.53;;;3.80;;
11709;SDS011;5911;51.036;6.972;2023-12-20T09:43:46;12.63;;;3.90;;
11709;SDS011;5911;51.036;6.972;2023-12-20T09:46:14;8.43;;;3.97;;
11709;SDS011;5911;51.036;6.972;2023-12-20T09:48:45;7.13;;;2.67;;
11709;SDS011;5911;51.036;6.972;2023-12-20T09:51:12;13.53;;;3.67;;
11709;SDS011;5911;51.036;6.972;2023-12-20T09:53:40;7.57;;;3.10;;
11709;SDS011;5911;51.036;6.972;2023-12-20T09:56:09;9.40;;;3.80;;
11709;SDS011;5911;51.036;6.972;2023-12-20T09:58:37;11.43;;;3.90;;
11709;SDS011;5911;51.036;6.972;2023-12-20T10:01:05;6.97;;;2.93;;
11709;SDS011;5911;51.036;6.972;2023-12-20T10:03:33;13.80;;;4.23;;
11709;SDS011;5911;51.036;6.972;2023-12-20T10:06:03;9.43;;;3.87;;
11709;SDS011;5911;51.036;6.972;2023-12-20T10:08:31;7.33;;;3.50;;
11709;SDS011;5911;51.036;6.972;2023-12-20T10:10:59;11.40;;;3.80;;
11709;SDS011;5911;51.036;6.972;2023-12-20T10:13:29;10.90;;;3.17;;
11709;SDS011;5911;51.036;6.972;2023-12-20T10:15:57;11.67;;;3.40;;
11709;SDS011;5911;51.036;6.972;2023-12-20T10:18:24;11.50;;;3.63;;
11709;SDS011;5911;51.036;6.972;2023-12-20T10:21:06;9.17;;;3.50;;
11709;SDS011;5911;51.036;6.972;2023-12-20T10:23:33;15.03;;;4.30;;
11709;SDS011;5911;51.036;6.972;2023-12-20T10:26:01;15.83;;;4.37;;
11709;SDS011;5911;51.036;6.972;2023-12-20T10:28:32;8.80;;;3.10;;
11709;SDS011;5911;51.036;6.972;2023-12-20T10:31:01;11.27;;;3.60;;
11709;SDS011;5911;51.036;6.972;2023-12-20T10:33:30;12.83;;;3.60;;
11709;SDS011;5911;51.036;6.972;2023-12-20T10:35:59;10.07;;;3.20;;
11709;SDS011;5911;51.036;6.972;2023-12-20T10:38:28;12.30;;;3.83;;
11709;SDS011;5911;51.036;6.972;2023-12-20T10:40:57;11.93;;;3.33;;
11709;SDS011;5911;51.036;6.972;2023-12-20T10:43:25;17.40;;;3.60;;
11709;SDS011;5911;51.036;6.972;2023-12-20T10:45:53;14.20;;;3.80;;
11709;SDS011;5911;51.036;6.972;2023-12-20T10:48:21;12.83;;;3.93;;
11709;SDS011;5911;51.036;6.972;2023-12-20T10:50:54;8.57;;;2.80;;
11709;SDS011;5911;51.036;6.972;2023-12-20T10:53:22;12.83;;;3.33;;
11709;SDS011;5911;51.036;6.972;2023-12-20T10:55:51;8.13;;;3.40;;
11709;SDS011;5911;51.036;6.972;2023-12-20T10:58:19;16.20;;;3.87;;
11709;SDS011;5911;51.036;6.972;2023-12-20T11:00:47;14.03;;;3.80;;
11709;SDS011;5911;51.036;6.972;2023-12-20T11:03:18;10.93;;;3.07;;
11709;SDS011;5911;51.036;6.972;2023-12-20T11:05:46;10.70;;;3.03;;
11709;SDS011;5911;51.036;6.972;2023-12-20T11:08:19;11.90;;;3.67;;
11709;SDS011;5911;51.036;6.972;2023-12-20T11:10:49;10.20;;;3.27;;
11709;SDS011;5911;51.036;6.972;2023-12-20T11:13:22;11.67;;;3.40;;
11709;SDS011;5911;51.036;6.972;2023-12-20T11:15:50;16.57;;;4.13;;
11709;SDS011;5911;51.036;6.972;2023-12-20T11:18:18;10.30;;;3.80;;
11709;SDS011;5911;51.036;6.972;2023-12-20T11:20:45;10.47;;;3.53;;
11709;SDS011;5911;51.036;6.972;2023-12-20T11:23:13;14.70;;;3.50;;
11709;SDS011;5911;51.036;6.972;2023-12-20T11:25:48;12.33;;;3.63;;
11709;SDS011;5911;51.036;6.972;2023-12-20T11:28:16;7.00;;;3.20;;
11709;SDS011;5911;51.036;6.972;2023-12-20T11:30:50;12.87;;;3.40;;
11709;SDS011;5911;51.036;6.972;2023-12-20T11:33:21;13.17;;;3.40;;
11709;SDS011;5911;51.036;6.972;2023-12-20T11:35:50;11.93;;;3.23;;
11709;SDS011;5911;51.036;6.972;2023-12-20T11:38:19;11.57;;;3.17;;
11709;SDS011;5911;51.036;6.972;2023-12-20T11:40:47;8.87;;;2.53;;
11709;SDS011;5911;51.036;6.972;2023-12-20T11:43:25;17.77;;;5.23;;
11709;SDS011;5911;51.036;6.972;2023-12-20T11:45:59;12.20;;;3.40;;
11709;SDS011;5911;51.036;6.972;2023-12-20T11:48:29;11.30;;;3.70;;
11709;SDS011;5911;51.036;6.972;2023-12-20T11:50:57;9.90;;;2.97;;
11709;SDS011;5911;51.036;6.972;2023-12-20T11:53:24;10.00;;;3.40;;
11709;SDS011;5911;51.036;6.972;2023-12-20T11:55:53;11.57;;;3.17;;
11709;SDS011;5911;51.036;6.972;2023-12-20T11:58:21;14.30;;;3.83;;
11709;SDS011;5911;51.036;6.972;2023-12-20T12:00:49;12.57;;;4.13;;
11709;SDS011;5911;51.036;6.972;2023-12-20T12:03:18;9.07;;;3.10;;
11709;SDS011;5911;51.036;6.972;2023-12-20T12:05:46;9.77;;;2.80;;
11709;SDS011;5911;51.036;6.972;2023-12-20T12:08:14;8.77;;;3.50;;
11709;SDS011;5911;51.036;6.972;2023-12-20T12:10:42;11.33;;;3.20;;
11709;SDS011;5911;51.036;6.972;2023-12-20T12:13:09;11.90;;;4.07;;
11709;SDS011;5911;51.036;6.972;2023-12-20T12:15:37;8.53;;;3.57;;
11709;SDS011;5911;51.036;6.972;2023-12-20T12:18:05;10.27;;;3.33;;
11709;SDS011;5911;51.036;6.972;2023-12-20T12:20:34;9.73;;;3.07;;
11709;SDS011;5911;51.036;6.972;2023-12-20T12:23:04;11.27;;;3.43;;
11709;SDS011;5911;51.036;6.972;2023-12-20T12:25:34;9.33;;;3.23;;
11709;SDS011;5911;51.036;6.972;2023-12-20T12:28:08;10.67;;;3.60;;
11709;SDS011;5911;51.036;6.972;2023-12-20T12:30:36;12.63;;;3.53;;
11709;SDS011;5911;51.036;6.972;2023-12-20T12:33:11;14.27;;;3.50;;
11709;SDS011;5911;51.036;6.972;2023-12-20T12:35:41;9.97;;;4.07;;
11709;SDS011;5911;51.036;6.972;2023-12-20T12:38:08;11.37;;;3.50;;
11709;SDS011;5911;51.036;6.972;2023-12-20T12:40:36;7.87;;;3.40;;
11709;SDS011;5911;51.036;6.972;2023-12-20T12:43:03;8.97;;;3.33;;
11709;SDS011;5911;51.036;6.972;2023-12-20T12:45:32;18.53;;;4.70;;
11709;SDS011;5911;51.036;6.972;2023-12-20T12:48:00;11.13;;;3.90;;
11709;SDS011;5911;51.036;6.972;2023-12-20T12:50:27;12.00;;;3.97;;
11709;SDS011;5911;51.036;6.972;2023-12-20T12:52:57;9.10;;;3.57;;
11709;SDS011;5911;51.036;6.972;2023-12-20T12:55:24;12.27;;;4.47;;
11709;SDS011;5911;51.036;6.972;2023-12-20T12:57:52;9.37;;;3.43;;
11709;SDS011;5911;51.036;6.972;2023-12-20T13:00:20;12.73;;;3.70;;
11709;SDS011;5911;51.036;6.972;2023-12-20T13:02:48;11.80;;;3.80;;
11709;SDS011;5911;51.036;6.972;2023-12-20T13:05:15;10.53;;;4.90;;
11709;SDS011;5911;51.036;6.972;2023-12-20T13:07:44;12.00;;;4.10;;
11709;SDS011;5911;51.036;6.972;2023-12-20T13:10:14;10.97;;;4.07;;
11709;SDS011;5911;51.036;6.972;2023-12-20T13:12:43;14.40;;;4.83;;
11709;SDS011;5911;51.036;6.972;2023-12-20T13:15:10;10.30;;;4.00;;
11709;SDS011;5911;51.036;6.972;2023-12-20T13:17:38;9.60;;;4.03;;
11709;SDS011;5911;51.036;6.972;2023-12-20T13:20:08;13.93;;;4.63;;
11709;SDS011;5911;51.036;6.972;2023-12-20T13:22:45;14.43;;;4.90;;
11709;SDS011;5911;51.036;6.972;2023-12-20T13:25:14;9.67;;;4.57;;
11709;SDS011;5911;51.036;6.972;2023-12-20T13:27:44;11.20;;;4.07;;
11709;SDS011;5911;51.036;6.972;2023-12-20T13:30:12;11.80;;;3.93;;
11709;SDS011;5911;51.036;6.972;2023-12-20T13:32:41;8.60;;;3.83;;
11709;SDS011;5911;51.036;6.972;2023-12-20T13:35:09;10.90;;;4.13;;
11709;SDS011;5911;51.036;6.972;2023-12-20T13:37:36;8.90;;;4.20;;
11709;SDS011;5911;51.036;6.972;2023-12-20T13:40:06;9.13;;;4.13;;
11709;SDS011;5911;51.036;6.972;2023-12-20T13:42:35;11.50;;;4.20;;
11709;SDS011;5911;51.036;6.972;2023-12-20T13:45:03;8.50;;;3.57;;
11709;SDS011;5911;51.036;6.972;2023-12-20T13:47:31;9.00;;;3.40;;
11709;SDS011;5911;51.036;6.972;2023-12-20T13:49:58;13.60;;;4.20;;
11709;SDS011;5911;51.036;6.972;2023-12-20T13:52:26;8.20;;;3.27;;
11709;SDS011;5911;51.036;6.972;2023-12-20T13:54:55;9.33;;;3.70;;
11709;SDS011;5911;51.036;6.972;2023-12-20T13:57:23;7.53;;;3.77;;
11709;SDS011;5911;51.036;6.972;2023-12-20T14:00:11;9.13;;;4.53;;
11709;SDS011;5911;51.036;6.972;2023-12-20T14:02:41;12.43;;;3.43;;
11709;SDS011;5911;51.036;6.972;2023-12-20T14:05:08;9.63;;;3.97;;
11709;SDS011;5911;51.036;6.972;2023-12-20T14:07:36;9.43;;;3.43;;
11709;SDS011;5911;51.036;6.972;2023-12-20T14:10:05;10.73;;;4.10;;
11709;SDS011;5911;51.036;6.972;2023-12-20T14:12:33;11.03;;;3.63;;
11709;SDS011;5911;51.036;6.972;2023-12-20T14:15:02;11.93;;;3.57;;
11709;SDS011;5911;51.036;6.972;2023-12-20T14:17:35;9.60;;;4.03;;
11709;SDS011;5911;51.036;6.972;2023-12-20T14:20:03;5.07;;;3.20;;
11709;SDS011;5911;51.036;6.972;2023-12-20T14:22:31;9.60;;;3.93;;
11709;SDS011;5911;51.036;6.972;2023-12-20T14:24:58;7.53;;;3.60;;
11709;SDS011;5911;51.036;6.972;2023-12-20T14:27:26;11.97;;;3.97;;
11709;SDS011;5911;51.036;6.972;2023-12-20T14:29:54;8.17;;;3.17;;
11709;SDS011;5911;51.036;6.972;2023-12-20T14:32:21;11.13;;;3.80;;
11709;SDS011;5911;51.036;6.972;2023-12-20T14:34:50;9.27;;;4.13;;
11709;SDS011;5911;51.036;6.972;2023-12-20T14:37:18;11.17;;;4.20;;
11709;SDS011;5911;51.036;6.972;2023-12-20T14:39:45;5.67;;;3.50;;
11709;SDS011;5911;51.036;6.972;2023-12-20T14:42:13;7.67;;;3.40;;
11709;SDS011;5911;51.036;6.972;2023-12-20T14:44:40;7.63;;;3.97;;
11709;SDS011;5911;51.036;6.972;2023-12-20T14:47:08;8.80;;;3.33;;
11709;SDS011;5911;51.036;6.972;2023-12-20T14:49:35;7.53;;;3.23;;
11709;SDS011;5911;51.036;6.972;2023-12-20T14:52:05;10.60;;;4.13;;
11709;SDS011;5911;51.036;6.972;2023-12-20T14:54:33;7.13;;;3.20;;
11709;SDS011;5911;51.036;6.972;2023-12-20T14:57:00;8.23;;;3.87;;
11709;SDS011;5911;51.036;6.972;2023-12-20T14:59:31;10.80;;;3.90;;